Time;durP1;ratioP1;P1;durP2;ratioP2;P2;SDS_P1;SDS_P2;PMS_P1;PMS_P2;Temp;Humidity;BMP_temperature;BMP_pressure;BME280_temperature;BME280_humidity;BME280_pressure;Samples;Min_cycle;Max_cycle;Signal;HPM_P1;HPM_P2
2020/12/03 00:00:46;;;;;;;25.73;13.63;;;5.30;93.20;;;;;;5030924;28;20111;-70
2020/12/03 00:03:25;;;;;;;27.75;13.63;;;5.30;93.30;;;;;;5031894;28;20115;-71
2020/12/03 00:05:59;;;;;;;24.75;13.75;;;5.30;93.30;;;;;;5031644;28;20041;-70
2020/12/03 00:08:28;;;;;;;23.60;13.02;;;5.30;93.40;;;;;;5033093;28;20029;-70
2020/12/03 00:10:53;;;;;;;24.92;12.95;;;5.30;93.30;;;;;;5031781;28;20411;-71
2020/12/03 00:13:23;;;;;;;27.65;13.80;;;5.30;93.30;;;;;;5031385;28;20033;-71
2020/12/03 00:15:53;;;;;;;29.48;14.65;;;5.20;93.30;;;;;;5031335;28;20042;-71
2020/12/03 00:18:19;;;;;;;25.50;13.57;;;5.20;93.40;;;;;;5031461;28;20036;-71
2020/12/03 00:20:46;;;;;;;27.00;13.80;;;5.20;93.40;;;;;;5031512;28;20018;-71
2020/12/03 00:23:11;;;;;;;24.42;12.50;;;5.20;93.50;;;;;;5033013;28;20100;-71
2020/12/03 00:25:37;;;;;;;26.58;14.18;;;5.20;93.60;;;;;;5031188;28;20592;-71
2020/12/03 00:28:05;;;;;;;28.27;14.43;;;5.10;93.50;;;;;;5030294;28;20034;-72
2020/12/03 00:30:32;;;;;;;25.90;13.82;;;5.10;93.90;;;;;;5031026;28;20456;-71
2020/12/03 00:32:57;;;;;;;27.38;14.60;;;5.10;93.70;;;;;;5031185;28;20034;-71
2020/12/03 00:35:25;;;;;;;30.02;14.65;;;5.10;93.70;;;;;;5032820;28;20083;-71
2020/12/03 00:37:52;;;;;;;28.42;14.68;;;5.10;93.70;;;;;;5031384;28;20199;-72
2020/12/03 00:40:19;;;;;;;30.63;14.95;;;5.10;93.80;;;;;;5031133;28;20048;-71
2020/12/03 00:42:45;;;;;;;29.50;14.40;;;5.10;93.70;;;;;;5031299;28;20121;-71
2020/12/03 00:45:14;;;;;;;27.52;14.35;;;5.10;93.70;;;;;;5031249;28;20550;-71
2020/12/03 00:47:41;;;;;;;27.75;14.50;;;5.20;93.70;;;;;;5029846;28;20029;-71
2020/12/03 00:50:11;;;;;;;30.75;14.77;;;5.20;93.80;;;;;;5032721;28;20046;-70
2020/12/03 00:52:37;;;;;;;29.15;14.02;;;5.20;93.70;;;;;;5030893;28;20057;-70
2020/12/03 00:55:04;;;;;;;30.75;14.40;;;5.20;93.70;;;;;;5031166;28;20115;-70
2020/12/03 00:57:30;;;;;;;28.27;14.90;;;5.20;93.70;;;;;;5029861;28;20045;-71
2020/12/03 00:59:56;;;;;;;28.17;14.52;;;5.10;93.70;;;;;;5031157;28;20369;-71
2020/12/03 01:02:22;;;;;;;30.75;14.82;;;5.10;93.80;;;;;;5032429;28;20030;-71
2020/12/03 01:04:48;;;;;;;30.40;15.00;;;5.20;93.80;;;;;;5031140;28;20116;-71
2020/12/03 01:07:14;;;;;;;30.92;13.90;;;5.10;93.80;;;;;;5030943;28;20125;-70
2020/12/03 01:09:42;;;;;;;29.00;14.45;;;5.20;93.80;;;;;;5030917;28;20026;-71
2020/12/03 01:12:09;;;;;;;29.35;14.50;;;5.20;93.80;;;;;;5034118;28;20463;-69
2020/12/03 01:14:36;;;;;;;27.17;14.38;;;5.20;93.80;;;;;;5034351;28;20033;-70
2020/12/03 01:17:05;;;;;;;28.27;14.83;;;5.10;93.90;;;;;;5035965;28;20458;-71
2020/12/03 01:19:31;;;;;;;26.75;14.88;;;5.10;93.90;;;;;;5034484;28;20065;-71
2020/12/03 01:21:57;;;;;;;28.90;14.52;;;5.20;93.90;;;;;;5034458;28;20064;-71
2020/12/03 01:24:22;;;;;;;30.83;14.68;;;5.20;93.90;;;;;;5034115;28;20362;-70
2020/12/03 01:26:48;;;;;;;27.13;14.27;;;5.10;94.00;;;;;;5033306;28;20092;-70
2020/12/03 01:29:16;;;;;;;32.95;14.88;;;5.10;94.10;;;;;;5034824;28;20017;-71
2020/12/03 01:31:42;;;;;;;28.48;14.10;;;5.10;94.10;;;;;;5034330;28;20112;-71
2020/12/03 01:34:08;;;;;;;30.88;15.50;;;5.10;94.20;;;;;;5034115;28;20418;-71
2020/12/03 01:36:34;;;;;;;26.83;13.35;;;5.20;94.10;;;;;;5033969;28;20029;-71
2020/12/03 01:39:00;;;;;;;26.98;14.32;;;5.10;94.10;;;;;;5033743;28;20120;-70
2020/12/03 01:41:25;;;;;;;30.83;15.75;;;5.10;94.10;;;;;;5035505;28;20037;-71
2020/12/03 01:43:51;;;;;;;30.23;15.20;;;5.10;94.20;;;;;;5033681;28;20037;-70
2020/12/03 01:46:18;;;;;;;31.38;15.65;;;5.10;94.20;;;;;;5033997;28;20045;-70
2020/12/03 01:49:05;;;;;;;25.88;14.50;;;5.10;94.20;;;;;;5033727;28;20099;-70
2020/12/03 01:51:44;;;;;;;29.13;14.43;;;5.10;94.20;;;;;;5033791;28;20077;-71
2020/12/03 01:54:13;;;;;;;30.50;14.40;;;5.10;94.30;;;;;;5033680;28;20073;-71
2020/12/03 01:57:41;;;;;;;26.25;13.30;;;5.00;94.80;;;;;;5033402;28;20128;-70
2020/12/03 02:00:10;;;;;;;34.20;14.43;;;4.90;94.70;;;;;;5020839;28;20025;-71
2020/12/03 02:02:36;;;;;;;29.45;15.07;;;4.90;94.70;;;;;;5033468;28;20036;-71
2020/12/03 02:05:38;;;;;;;27.95;14.27;;;4.90;94.70;;;;;;5035215;28;20021;-69
2020/12/03 02:08:04;;;;;;;28.75;14.90;;;4.90;94.80;;;;;;5016922;28;20372;-71
2020/12/03 02:10:30;;;;;;;27.50;14.20;;;5.00;94.70;;;;;;5033310;28;20053;-71
2020/12/03 02:12:56;;;;;;;26.90;14.82;;;4.90;94.80;;;;;;5033128;28;20534;-71
2020/12/03 02:15:22;;;;;;;29.77;15.23;;;4.90;94.80;;;;;;5033237;28;20121;-70
2020/12/03 02:17:47;;;;;;;30.65;14.70;;;5.00;94.70;;;;;;5033274;28;20029;-70
2020/12/03 02:20:17;;;;;;;28.17;14.15;;;5.00;94.70;;;;;;5034050;28;20041;-71
2020/12/03 02:22:44;;;;;;;28.75;13.52;;;5.00;94.70;;;;;;5032769;28;20034;-71
2020/12/03 02:25:11;;;;;;;27.17;13.32;;;5.10;94.60;;;;;;5033164;28;20038;-70
2020/12/03 02:27:38;;;;;;;27.55;14.30;;;5.00;94.70;;;;;;5033069;28;20451;-70
2020/12/03 02:30:06;;;;;;;29.30;14.57;;;5.00;94.70;;;;;;5033015;28;20109;-70
2020/12/03 02:32:32;;;;;;;29.00;14.25;;;5.00;94.80;;;;;;5034569;28;20037;-71
2020/12/03 02:34:59;;;;;;;29.42;13.48;;;5.10;94.70;;;;;;5031992;28;20034;-70
2020/12/03 02:37:26;;;;;;;26.30;13.95;;;5.20;94.70;;;;;;5032931;28;20045;-71
2020/12/03 02:39:52;;;;;;;28.23;14.85;;;5.20;94.70;;;;;;5032928;28;20549;-70
2020/12/03 02:42:20;;;;;;;25.98;13.82;;;5.20;94.70;;;;;;5032984;28;20112;-70
2020/12/03 02:44:47;;;;;;;;;;;5.20;94.60;;;;;;5033149;28;20017;-70
2020/12/03 02:47:16;;;;;;;28.23;14.13;;;5.10;94.60;;;;;;5034497;28;19959;-71
2020/12/03 02:49:41;;;;;;;26.60;13.23;;;5.10;94.60;;;;;;5032689;28;20321;-71
2020/12/03 02:52:17;;;;;;;26.38;13.18;;;5.10;94.70;;;;;;5032386;28;20046;-71
2020/12/03 02:54:43;;;;;;;26.55;13.15;;;4.90;94.70;;;;;;5032811;28;20041;-70
2020/12/03 02:57:10;;;;;;;26.02;13.13;;;5.00;95.00;;;;;;5032438;28;20062;-72
2020/12/03 02:59:36;;;;;;;30.73;15.10;;;5.00;94.90;;;;;;5032281;28;20033;-70
2020/12/03 03:02:02;;;;;;;27.88;14.05;;;5.00;94.90;;;;;;5033926;28;20048;-71
2020/12/03 03:04:27;;;;;;;26.73;13.18;;;5.10;94.90;;;;;;5031175;28;20088;-70
2020/12/03 03:06:54;;;;;;;28.77;13.43;;;5.10;94.90;;;;;;5032452;28;20030;-70
2020/12/03 03:09:20;;;;;;;27.98;14.07;;;5.00;94.80;;;;;;5032525;28;20355;-71
2020/12/03 03:11:46;;;;;;;25.42;13.57;;;5.10;94.90;;;;;;5032756;28;20033;-72
2020/12/03 03:14:12;;;;;;;27.85;13.38;;;5.10;94.80;;;;;;5034026;28;20026;-71
2020/12/03 03:16:38;;;;;;;25.55;12.73;;;5.10;94.90;;;;;;5032349;28;20053;-71
2020/12/03 03:19:04;;;;;;;28.95;13.82;;;5.10;94.90;;;;;;5032154;28;20087;-70
2020/12/03 03:21:30;;;;;;;27.35;13.63;;;5.10;95.00;;;;;;5030908;28;20036;-71
2020/12/03 03:23:56;;;;;;;26.15;12.77;;;5.00;95.00;;;;;;5031040;28;20041;-71
2020/12/03 03:26:21;;;;;;;29.13;14.05;;;5.00;95.20;;;;;;5032774;28;20033;-70
2020/12/03 03:28:47;;;;;;;26.92;13.40;;;4.90;95.20;;;;;;5032374;28;20041;-70
2020/12/03 03:31:13;;;;;;;28.63;14.23;;;4.90;95.30;;;;;;5032255;28;20045;-69
2020/12/03 03:33:39;;;;;;;26.23;13.57;;;5.00;95.30;;;;;;5031677;28;20048;-70
2020/12/03 03:36:05;;;;;;;25.73;12.98;;;4.90;95.20;;;;;;5031389;28;20316;-69
2020/12/03 03:38:31;;;;;;;25.98;13.50;;;4.90;95.20;;;;;;5033234;28;20447;-70
2020/12/03 03:40:57;;;;;;;26.35;12.93;;;5.00;95.30;;;;;;5031898;28;20344;-70
2020/12/03 03:43:22;;;;;;;27.10;13.95;;;5.00;95.30;;;;;;5030806;28;20065;-70
2020/12/03 03:45:48;;;;;;;22.30;12.02;;;5.00;95.20;;;;;;5031897;28;20040;-71
2020/12/03 03:48:13;;;;;;;26.83;13.20;;;5.00;95.20;;;;;;5031763;28;20116;-71
2020/12/03 03:50:39;;;;;;;27.80;13.10;;;5.10;95.20;;;;;;5031669;28;20116;-70
2020/12/03 03:53:05;;;;;;;26.80;13.07;;;5.00;95.10;;;;;;5033209;28;20037;-71
2020/12/03 03:55:31;;;;;;;24.33;12.77;;;5.00;95.20;;;;;;5031683;28;20386;-72
2020/12/03 03:57:58;;;;;;;27.33;13.80;;;5.00;95.30;;;;;;5031995;28;20542;-72
2020/12/03 04:00:25;;;;;;;26.67;13.50;;;5.00;95.20;;;;;;5028085;28;20037;-73
2020/12/03 04:02:53;;;;;;;24.45;13.15;;;5.00;95.40;;;;;;5018893;28;20274;-72
2020/12/03 04:05:19;;;;;;;24.58;12.38;;;5.00;95.40;;;;;;5032457;28;20175;-70
2020/12/03 04:07:47;;;;;;;27.90;13.27;;;5.00;95.40;;;;;;5018084;28;20057;-72
2020/12/03 04:10:16;;;;;;;24.05;12.77;;;5.00;95.40;;;;;;5022201;28;20111;-71
2020/12/03 04:12:41;;;;;;;;;;;5.00;95.50;;;;;;5028895;28;20053;-71
2020/12/03 04:15:07;;;;;;;25.70;12.98;;;5.00;95.40;;;;;;5031977;28;19968;-71
2020/12/03 04:17:36;;;;;;;27.38;13.80;;;5.00;95.40;;;;;;5031510;28;20123;-69
2020/12/03 04:20:03;;;;;;;22.08;13.02;;;5.00;95.40;;;;;;5031868;28;20075;-71
2020/12/03 04:22:29;;;;;;;29.25;14.57;;;5.10;95.40;;;;;;5031366;28;20045;-70
2020/12/03 04:24:54;;;;;;;24.95;12.80;;;5.00;95.40;;;;;;5031357;28;20036;-72
2020/12/03 04:27:21;;;;;;;24.17;13.15;;;5.00;95.50;;;;;;5031333;28;20089;-69
2020/12/03 04:29:46;;;;;;;23.73;12.75;;;5.00;95.50;;;;;;5031327;28;20025;-70
2020/12/03 04:32:12;;;;;;;29.92;14.18;;;5.00;95.50;;;;;;5033118;28;20021;-70
2020/12/03 04:34:38;;;;;;;26.80;13.32;;;5.00;95.30;;;;;;5031280;28;20409;-70
2020/12/03 04:37:03;;;;;;;25.38;12.98;;;5.00;95.40;;;;;;5031302;28;20364;-70
2020/12/03 04:39:29;;;;;;;27.30;12.93;;;5.00;95.60;;;;;;5031379;28;20049;-70
2020/12/03 04:41:55;;;;;;;25.35;12.88;;;4.90;95.60;;;;;;5031278;28;20116;-70
2020/12/03 04:44:31;;;;;;;25.25;13.38;;;5.00;95.60;;;;;;5031735;28;20033;-70
2020/12/03 04:47:21;;;;;;;30.13;13.60;;;5.00;95.70;;;;;;5033880;28;20037;-71
2020/12/03 04:49:54;;;;;;;23.92;13.10;;;5.00;95.70;;;;;;5034915;28;20398;-70
2020/12/03 04:52:41;;;;;;;26.58;13.20;;;5.00;95.70;;;;;;5034799;28;20041;-71
2020/12/03 04:55:25;;;;;;;24.37;13.07;;;5.00;95.80;;;;;;5034856;28;20048;-70
2020/12/03 04:58:16;;;;;;;26.80;12.60;;;5.00;95.70;;;;;;5034831;28;20495;-70
2020/12/03 05:00:55;;;;;;;26.95;13.00;;;5.00;95.80;;;;;;5033754;28;20053;-70
2020/12/03 05:03:45;;;;;;;25.73;13.82;;;4.90;95.80;;;;;;5034647;28;20338;-70
2020/12/03 05:06:20;;;;;;;25.52;13.00;;;4.90;96.00;;;;;;5034866;28;20057;-72
2020/12/03 05:09:04;;;;;;;27.88;13.98;;;4.90;95.90;;;;;;5034851;28;20079;-70
2020/12/03 05:11:43;;;;;;;27.90;13.88;;;4.90;96.00;;;;;;5036166;28;20026;-70
2020/12/03 05:14:21;;;;;;;25.52;13.30;;;5.00;95.90;;;;;;5034651;28;20033;-70
2020/12/03 05:16:59;;;;;;;26.33;13.38;;;4.90;95.90;;;;;;5034263;28;20050;-70
2020/12/03 05:19:28;;;;;;;32.53;13.63;;;4.90;95.90;;;;;;5034670;28;20040;-70
2020/12/03 05:21:55;;;;;;;27.30;13.52;;;5.00;96.00;;;;;;5033178;28;20080;-72
2020/12/03 05:24:20;;;;;;;27.70;14.13;;;5.00;95.90;;;;;;5034435;28;20044;-70
2020/12/03 05:26:46;;;;;;;30.75;14.27;;;5.00;95.90;;;;;;5034447;28;20112;-71
2020/12/03 05:29:11;;;;;;;26.75;14.18;;;5.10;95.90;;;;;;5035849;28;20095;-70
2020/12/03 05:31:42;;;;;;;27.15;13.52;;;5.00;95.80;;;;;;5034099;28;20034;-73
2020/12/03 05:34:12;;;;;;;24.33;12.85;;;4.90;95.90;;;;;;5034184;28;20419;-71
2020/12/03 05:37:03;;;;;;;25.85;13.30;;;5.00;96.00;;;;;;5034009;28;20120;-70
2020/12/03 05:39:57;;;;;;;29.58;13.60;;;4.90;95.90;;;;;;5033004;28;20047;-70
2020/12/03 05:42:30;;;;;;;28.13;13.75;;;5.00;96.00;;;;;;5034242;28;20040;-70
2020/12/03 05:45:08;;;;;;;26.17;13.77;;;4.90;95.90;;;;;;5034060;28;20037;-71
2020/12/03 05:47:36;;;;;;;;;;;5.00;96.00;;;;;;5034309;28;20072;-69
2020/12/03 05:50:10;;;;;;;27.85;13.25;;;4.90;96.00;;;;;;5035618;28;19940;-70
2020/12/03 05:52:36;;;;;;;26.77;14.48;;;4.90;96.10;;;;;;5033734;28;20047;-70
2020/12/03 05:55:10;;;;;;;27.73;13.55;;;5.00;96.00;;;;;;5033749;28;20481;-70
2020/12/03 05:57:39;;;;;;;27.70;13.70;;;4.90;96.00;;;;;;5032543;28;20084;-71
2020/12/03 06:00:13;;;;;;;28.13;14.00;;;4.90;96.10;;;;;;5033500;28;20055;-70
2020/12/03 06:02:52;;;;;;;29.27;15.07;;;5.00;96.10;;;;;;5033450;28;20049;-70
2020/12/03 06:05:40;;;;;;;28.80;13.85;;;4.90;96.00;;;;;;5035024;28;20515;-71
2020/12/03 06:08:24;;;;;;;27.83;14.10;;;4.90;96.00;;;;;;5033944;28;20377;-70
2020/12/03 06:11:02;;;;;;;29.15;14.82;;;5.00;96.00;;;;;;5033483;28;20030;-70
2020/12/03 06:13:43;;;;;;;27.65;13.13;;;5.00;96.00;;;;;;5033522;28;20049;-71
2020/12/03 06:16:24;;;;;;;36.88;14.65;;;4.90;96.00;;;;;;5033248;28;20040;-71
2020/12/03 06:19:08;;;;;;;35.28;14.65;;;5.00;96.00;;;;;;5032948;28;20483;-71
2020/12/03 06:21:58;;;;;;;25.15;13.27;;;5.00;95.90;;;;;;5032994;28;20455;-71
2020/12/03 06:24:43;;;;;;;23.90;13.82;;;5.00;96.00;;;;;;5032786;28;20025;-70
2020/12/03 06:27:36;;;;;;;27.85;14.05;;;5.00;95.90;;;;;;5033159;28;20348;-70
2020/12/03 06:30:12;;;;;;;26.52;13.98;;;5.00;95.90;;;;;;5031745;28;20044;-71
2020/12/03 06:32:56;;;;;;;25.95;14.40;;;5.00;96.00;;;;;;5033013;28;20025;-71
2020/12/03 06:35:41;;;;;;;28.75;14.18;;;5.10;96.00;;;;;;5034605;28;20411;-70
2020/12/03 06:38:29;;;;;;;27.58;14.65;;;5.00;96.10;;;;;;5033467;28;20056;-71
2020/12/03 06:41:19;;;;;;;28.98;15.27;;;5.00;96.20;;;;;;5033180;28;20056;-71
2020/12/03 06:43:53;;;;;;;29.70;15.70;;;5.00;96.20;;;;;;5031928;28;20487;-71
2020/12/03 06:46:44;;;;;;;33.55;15.38;;;5.00;96.20;;;;;;5033048;28;20071;-71
2020/12/03 06:49:37;;;;;;;28.52;15.20;;;5.00;96.30;;;;;;5039227;28;20061;-71
2020/12/03 06:52:41;;;;;;;35.03;16.55;;;5.10;96.30;;;;;;5052320;28;20056;-71
2020/12/03 06:55:52;;;;;;;31.23;15.80;;;5.00;96.50;;;;;;5052152;28;20394;-70
2020/12/03 06:58:39;;;;;;;28.25;14.90;;;5.10;96.40;;;;;;5037288;28;20041;-70
2020/12/03 07:01:29;;;;;;;32.88;17.00;;;5.00;96.50;;;;;;5052505;28;20033;-70
2020/12/03 07:04:32;;;;;;;37.00;17.98;;;5.00;96.70;;;;;;5052945;28;20063;-74
2020/12/03 07:07:20;;;;;;;35.42;17.77;;;5.00;96.70;;;;;;5052525;28;20029;-74
2020/12/03 07:10:10;;;;;;;36.10;16.85;;;5.00;96.70;;;;;;5053571;28;20041;-77
2020/12/03 07:12:54;;;;;;;35.17;17.52;;;4.90;96.90;;;;;;5052967;28;20063;-76
2020/12/03 07:15:57;;;;;;;36.28;17.23;;;5.00;96.90;;;;;;5052695;28;20036;-76
2020/12/03 07:18:31;;;;;;;36.72;18.80;;;5.00;97.00;;;;;;5052244;28;20127;-75
2020/12/03 07:21:15;;;;;;;36.10;17.30;;;4.90;97.00;;;;;;5051806;28;20048;-74
2020/12/03 07:24:07;;;;;;;37.80;19.25;;;4.90;97.20;;;;;;5052328;28;20086;-73
2020/12/03 07:26:49;;;;;;;39.92;18.98;;;5.00;97.20;;;;;;5053674;28;20028;-73
2020/12/03 07:29:46;;;;;;;42.13;19.70;;;5.00;97.20;;;;;;5052533;28;20099;-72
2020/12/03 07:33:01;;;;;;;38.63;17.92;;;5.00;97.20;;;;;;5052485;28;20366;-72
2020/12/03 07:35:50;;;;;;;41.15;19.75;;;5.00;97.20;;;;;;5019576;28;20132;-72
2020/12/03 07:38:31;;;;;;;39.53;19.42;;;4.90;97.30;;;;;;5052281;28;20134;-72
2020/12/03 07:40:58;;;;;;;39.65;19.70;;;4.80;97.40;;;;;;5051717;28;20052;-75
2020/12/03 07:43:24;;;;;;;37.72;18.58;;;4.90;97.30;;;;;;5050921;28;20061;-74
2020/12/03 07:45:51;;;;;;;40.65;20.27;;;4.90;97.40;;;;;;5051824;28;20048;-74
2020/12/03 07:48:21;;;;;;;37.75;17.67;;;4.90;97.50;;;;;;5051489;28;20029;-74
2020/12/03 07:51:15;;;;;;;38.40;19.55;;;4.90;97.40;;;;;;5051373;28;20108;-73
2020/12/03 07:53:41;;;;;;;40.90;19.02;;;4.90;97.20;;;;;;5044918;28;20052;-73
2020/12/03 07:56:26;;;;;;;37.40;18.55;;;4.90;97.20;;;;;;5053369;28;20021;-73
2020/12/03 07:58:53;;;;;;;37.95;19.17;;;4.90;97.30;;;;;;5051868;28;20097;-71
2020/12/03 08:01:27;;;;;;;37.95;19.27;;;4.80;97.30;;;;;;5051779;28;20117;-74
2020/12/03 08:03:58;;;;;;;40.88;19.15;;;4.80;97.20;;;;;;5050857;28;20044;-72
2020/12/03 08:06:25;;;;;;;39.80;18.15;;;4.80;97.50;;;;;;5050373;28;20091;-72
2020/12/03 08:09:14;;;;;;;38.90;19.13;;;4.80;97.50;;;;;;5051653;28;20459;-74
2020/12/03 08:11:57;;;;;;;36.08;19.02;;;4.80;97.50;;;;;;5043269;28;20288;-72
2020/12/03 08:14:35;;;;;;;38.85;18.70;;;4.80;97.50;;;;;;5051826;28;20025;-76
2020/12/03 08:17:06;;;;;;;37.40;18.67;;;4.80;97.50;;;;;;5051777;28;20105;-76
2020/12/03 08:19:38;;;;;;;35.25;18.10;;;4.80;97.60;;;;;;5051463;28;20044;-74
2020/12/03 08:22:05;;;;;;;43.50;20.63;;;4.80;97.50;;;;;;5054780;28;20509;-73
2020/12/03 08:24:33;;;;;;;37.23;19.73;;;4.90;97.60;;;;;;5055601;28;20048;-74
2020/12/03 08:27:12;;;;;;;37.00;19.90;;;4.80;97.50;;;;;;5055347;28;20040;-75
2020/12/03 08:29:37;;;;;;;42.92;19.52;;;4.80;97.70;;;;;;5054073;28;20033;-72
2020/12/03 08:32:03;;;;;;;40.15;19.98;;;4.80;97.80;;;;;;5056840;28;20473;-71
2020/12/03 08:34:41;;;;;;;42.78;20.25;;;4.90;97.70;;;;;;5054062;28;20357;-71
2020/12/03 08:37:17;;;;;;;39.42;19.63;;;4.90;97.80;;;;;;5055112;28;20048;-72
2020/12/03 08:39:46;;;;;;;43.40;21.13;;;4.90;97.90;;;;;;5051914;28;20330;-72
2020/12/03 08:42:12;;;;;;;43.78;22.40;;;4.80;97.80;;;;;;5054967;28;20500;-71
2020/12/03 08:44:40;;;;;;;40.60;20.83;;;4.80;97.90;;;;;;5055289;28;20373;-71
2020/12/03 08:47:19;;;;;;;39.60;19.10;;;4.90;97.80;;;;;;5056513;28;20425;-72
2020/12/03 08:49:44;;;;;;;36.85;20.10;;;4.90;97.80;;;;;;5054692;28;20099;-75
2020/12/03 08:52:11;;;;;;;40.03;19.48;;;4.90;97.90;;;;;;5054678;28;20382;-73
2020/12/03 08:54:38;;;;;;;41.15;20.17;;;4.90;97.90;;;;;;5055098;28;20064;-72
2020/12/03 08:57:10;;;;;;;48.47;20.42;;;5.00;97.90;;;;;;5054582;28;20053;-71
2020/12/03 08:59:50;;;;;;;39.85;19.17;;;4.90;97.80;;;;;;5053765;28;20090;-72
2020/12/03 09:02:20;;;;;;;36.67;19.08;;;5.00;97.90;;;;;;5055225;28;20469;-73
2020/12/03 09:04:52;;;;;;;40.03;19.65;;;5.00;97.90;;;;;;5054333;28;20045;-74
2020/12/03 09:07:19;;;;;;;40.70;18.45;;;5.00;97.90;;;;;;5054632;28;20048;-73
2020/12/03 09:09:47;;;;;;;38.00;18.80;;;5.10;97.80;;;;;;5053891;28;20044;-74
2020/12/03 09:12:34;;;;;;;34.05;18.48;;;5.10;97.70;;;;;;5054512;28;20370;-74
2020/12/03 09:15:07;;;;;;;34.08;17.27;;;5.10;97.50;;;;;;5054345;28;20037;-72
2020/12/03 09:17:41;;;;;;;36.85;17.95;;;5.20;97.50;;;;;;5055790;28;20059;-72
2020/12/03 09:20:10;;;;;;;34.88;17.58;;;5.20;97.40;;;;;;5054748;28;20041;-72
2020/12/03 09:22:38;;;;;;;34.65;17.67;;;5.20;97.50;;;;;;5054140;28;20060;-73
2020/12/03 09:25:07;;;;;;;37.80;18.25;;;5.20;97.30;;;;;;5053257;28;20033;-74
2020/12/03 09:27:41;;;;;;;38.80;19.00;;;5.20;97.50;;;;;;5054392;28;20036;-73
2020/12/03 09:30:20;;;;;;;39.75;18.33;;;5.30;97.30;;;;;;5054055;28;20394;-73
2020/12/03 09:33:04;;;;;;;35.00;18.20;;;5.30;97.10;;;;;;5053887;28;20048;-74
2020/12/03 09:35:32;;;;;;;32.10;17.23;;;5.30;97.10;;;;;;5055781;28;20568;-72
2020/12/03 09:38:04;;;;;;;36.30;17.88;;;5.40;97.00;;;;;;5054201;28;20045;-71
2020/12/03 09:40:33;;;;;;;34.55;16.05;;;5.40;97.00;;;;;;5053109;28;20033;-72
2020/12/03 09:42:59;;;;;;;35.08;17.73;;;5.40;96.80;;;;;;5054020;28;20054;-71
2020/12/03 09:45:32;;;;;;;33.75;17.05;;;5.40;96.70;;;;;;5054322;28;20120;-73
2020/12/03 09:48:01;;;;;;;37.88;17.23;;;5.40;96.70;;;;;;5053737;28;20025;-73
2020/12/03 09:50:27;;;;;;;;;;;5.40;96.70;;;;;;5055907;28;20370;-75
2020/12/03 09:52:54;;;;;;;33.65;16.98;;;5.40;96.70;;;;;;5053720;28;19939;-73
2020/12/03 09:55:20;;;;;;;36.60;17.27;;;5.40;96.80;;;;;;5053910;28;20504;-73
2020/12/03 09:57:55;;;;;;;34.70;16.23;;;5.40;96.70;;;;;;5053991;28;20401;-72
2020/12/03 10:00:33;;;;;;;35.72;17.23;;;5.40;96.80;;;;;;5053595;28;20059;-73
2020/12/03 10:03:17;;;;;;;32.15;17.05;;;5.40;96.60;;;;;;5052515;28;20120;-73
2020/12/03 10:06:08;;;;;;;33.42;16.58;;;5.50;96.60;;;;;;5053661;28;20056;-72
2020/12/03 10:09:03;;;;;;;35.38;16.42;;;5.50;96.50;;;;;;5053725;28;20100;-71
2020/12/03 10:11:50;;;;;;;28.48;14.90;;;5.60;96.50;;;;;;5054981;28;20485;-72
2020/12/03 10:14:27;;;;;;;33.10;16.70;;;5.50;96.40;;;;;;5053417;28;20029;-72
2020/12/03 10:17:05;;;;;;;33.10;16.45;;;5.60;96.40;;;;;;5053058;28;20051;-73
2020/12/03 10:19:31;;;;;;;;;;;5.60;96.40;;;;;;5053729;28;20037;-72
2020/12/03 10:22:01;;;;;;;33.42;16.33;;;5.60;96.30;;;;;;5053253;28;19940;-72
2020/12/03 10:24:38;;;;;;;35.22;17.85;;;5.70;96.30;;;;;;5053449;28;20118;-71
2020/12/03 10:27:11;;;;;;;33.65;17.30;;;5.70;96.40;;;;;;5053028;28;20029;-72
2020/12/03 10:29:45;;;;;;;33.75;16.45;;;5.60;96.30;;;;;;5052884;28;20049;-73
2020/12/03 10:32:16;;;;;;;37.85;16.23;;;5.60;96.60;;;;;;5054594;28;20016;-72
2020/12/03 10:34:47;;;;;;;33.50;15.60;;;5.60;96.30;;;;;;5053223;28;20029;-73
2020/12/03 10:37:25;;;;;;;32.92;15.38;;;5.60;96.30;;;;;;5052913;28;20374;-72
2020/12/03 10:40:16;;;;;;;32.38;16.27;;;5.60;96.40;;;;;;5053403;28;20048;-72
2020/12/03 10:42:58;;;;;;;33.00;16.52;;;5.60;96.40;;;;;;5052827;28;20036;-71
2020/12/03 10:45:29;;;;;;;29.50;15.20;;;5.60;96.40;;;;;;5052787;28;20418;-73
2020/12/03 10:48:31;;;;;;;33.00;15.50;;;5.60;96.40;;;;;;5051838;28;20048;-73
2020/12/03 10:50:59;;;;;;;29.27;15.18;;;5.70;96.50;;;;;;5052996;28;20040;-72
2020/12/03 10:53:28;;;;;;;27.38;14.10;;;5.70;96.40;;;;;;5054151;28;20041;-71
2020/12/03 10:56:12;;;;;;;29.13;14.07;;;5.70;96.40;;;;;;5052763;28;20108;-72
2020/12/03 10:58:45;;;;;;;33.22;15.73;;;5.80;96.40;;;;;;5052366;28;20167;-73
2020/12/03 11:01:21;;;;;;;27.13;13.98;;;5.80;96.40;;;;;;5051322;28;20481;-73
2020/12/03 11:03:48;;;;;;;29.00;14.02;;;5.70;96.20;;;;;;5051480;28;20029;-74
2020/12/03 11:06:15;;;;;;;28.33;13.77;;;5.80;96.30;;;;;;5052673;28;20426;-73
2020/12/03 11:08:41;;;;;;;23.67;12.83;;;5.80;96.10;;;;;;5052704;28;20104;-71
2020/12/03 11:11:08;;;;;;;32.47;14.50;;;5.90;96.00;;;;;;5053870;28;20103;-72
2020/12/03 11:13:34;;;;;;;26.03;13.27;;;5.80;96.00;;;;;;5052237;28;20112;-72
2020/12/03 11:16:04;;;;;;;27.02;13.20;;;5.80;96.20;;;;;;5050779;28;20112;-72
2020/12/03 11:18:48;;;;;;;23.70;12.55;;;5.80;96.10;;;;;;5052280;28;20060;-71
2020/12/03 11:21:23;;;;;;;34.35;16.13;;;5.80;96.10;;;;;;5052107;28;20021;-72
2020/12/03 11:24:00;;;;;;;29.85;15.00;;;5.80;96.10;;;;;;5052339;28;20021;-72
2020/12/03 11:26:29;;;;;;;26.58;12.55;;;5.90;96.10;;;;;;5052893;28;20366;-71
2020/12/03 11:29:09;;;;;;;26.98;13.00;;;5.90;95.90;;;;;;5051931;28;20040;-72
2020/12/03 11:31:35;;;;;;;25.65;12.52;;;5.90;95.90;;;;;;5051878;28;20033;-71
2020/12/03 11:34:00;;;;;;;28.13;14.15;;;5.90;96.00;;;;;;5051823;28;20043;-71
2020/12/03 11:36:37;;;;;;;25.20;13.07;;;5.90;95.80;;;;;;5052061;28;20132;-72
2020/12/03 11:39:05;;;;;;;28.35;13.25;;;5.90;95.90;;;;;;5052190;28;20071;-71
2020/12/03 11:44:29;;;;;;;25.27;12.45;;;6.00;96.00;;;;;;5051840;28;20392;-71
2020/12/03 11:49:31;;;;;;;27.85;13.18;;;6.00;95.80;;;;;;5051662;28;20037;-73
2020/12/03 11:52:18;;;;;;;21.60;11.73;;;5.90;95.60;;;;;;5051450;28;20139;-72
2020/12/03 11:54:45;;;;;;;22.15;11.05;;;6.00;95.70;;;;;;5051295;28;20037;-72
2020/12/03 11:57:14;;;;;;;23.38;12.82;;;6.00;95.70;;;;;;5050196;28;20055;-72
2020/12/03 11:59:40;;;;;;;24.25;12.55;;;6.00;95.50;;;;;;5051985;28;20017;-74
2020/12/03 12:02:10;;;;;;;21.73;11.20;;;6.00;95.50;;;;;;5053312;28;20039;-74
2020/12/03 12:12:35;;;;;;;20.05;11.18;;;6.10;95.50;;;;;;5051517;28;20067;-76
2020/12/03 12:15:02;;;;;;;21.60;11.07;;;6.10;95.50;;;;;;5051475;28;20374;-76
2020/12/03 12:17:32;;;;;;;19.50;10.93;;;6.10;95.50;;;;;;5053042;28;20024;-73
2020/12/03 12:20:01;;;;;;;25.08;12.57;;;6.20;95.80;;;;;;5050806;28;20029;-73
2020/12/03 12:22:27;;;;;;;27.30;12.73;;;6.30;95.60;;;;;;5051644;28;20033;-74
2020/12/03 12:24:53;;;;;;;23.48;11.68;;;6.20;95.40;;;;;;5051542;28;20343;-73
2020/12/03 12:27:18;;;;;;;22.75;11.40;;;6.30;95.50;;;;;;5051557;28;20033;-73
2020/12/03 12:29:44;;;;;;;27.85;13.07;;;6.30;95.40;;;;;;5051523;28;20422;-74
2020/12/03 12:32:09;;;;;;;26.55;13.80;;;6.30;95.40;;;;;;5053325;28;20035;-73
2020/12/03 12:34:36;;;;;;;23.33;11.57;;;6.40;95.40;;;;;;5051092;28;20041;-73
2020/12/03 12:37:02;;;;;;;21.20;10.85;;;6.40;95.10;;;;;;5051389;28;20060;-74
2020/12/03 12:39:27;;;;;;;18.70;10.25;;;6.40;95.00;;;;;;5051062;28;20116;-73
2020/12/03 12:42:11;;;;;;;17.33;9.35;;;6.30;95.00;;;;;;5051316;28;20040;-75
2020/12/03 12:44:38;;;;;;;19.33;10.27;;;6.20;95.00;;;;;;5050346;28;20354;-74
2020/12/03 12:47:05;;;;;;;17.08;9.68;;;6.20;95.10;;;;;;5051101;28;20036;-73
2020/12/03 12:49:31;;;;;;;19.80;9.85;;;6.20;95.20;;;;;;5051426;28;20043;-74
2020/12/03 12:51:57;;;;;;;23.23;10.50;;;6.30;95.20;;;;;;5050947;28;20080;-75
2020/12/03 12:54:24;;;;;;;20.63;10.02;;;6.30;95.20;;;;;;5051155;28;20048;-76
2020/12/03 12:56:55;;;;;;;22.20;10.80;;;6.30;95.10;;;;;;5051395;28;20100;-75
2020/12/03 12:59:22;;;;;;;21.00;11.55;;;6.40;95.10;;;;;;5051569;28;20121;-74
2020/12/03 13:01:49;;;;;;;22.63;10.48;;;6.30;95.00;;;;;;5051478;28;20132;-74
2020/12/03 13:04:16;;;;;;;23.03;11.47;;;6.30;95.00;;;;;;5051175;28;20110;-76
2020/12/03 13:06:42;;;;;;;24.70;13.00;;;6.20;94.90;;;;;;5052127;28;20262;-72
2020/12/03 13:09:09;;;;;;;27.25;11.35;;;6.10;95.10;;;;;;5054701;28;20447;-74
2020/12/03 13:11:36;;;;;;;21.90;12.15;;;6.20;95.10;;;;;;5055099;28;20369;-71
2020/12/03 13:14:06;;;;;;;23.58;12.02;;;6.20;95.00;;;;;;5056170;28;20358;-72
2020/12/03 13:16:33;;;;;;;27.63;12.27;;;6.30;95.00;;;;;;5054569;28;20041;-74
2020/12/03 13:18:59;;;;;;;25.20;12.93;;;6.30;95.00;;;;;;5054790;28;20033;-72